NCAR-RAP Real-Time Weather Data

Output produced by METARs form (08 May 2021  02:05 UTC)
found at http://weather.rap.ucar.edu/surface/
 
KDFW 080153Z 17015G24KT 10SM SCT250 25/13 A2992 RMK AO2 SLP123 T02500128
KDFW 080053Z 17015G24KT 10SM FEW250 27/13 A2992 RMK AO2 PK WND 18028/2358 SLP124 T02670133
KDFW 072353Z 17018G25KT 10SM FEW250 28/13 A2993 RMK AO2 PK WND 17026/2335 SLP129 T02830128 10306 20278 56030
KDFW 072253Z 17015KT 10SM FEW250 29/13 A2996 RMK AO2 PK WND 16028/2201 SLP136 T02940128
KDFW 072153Z 18014G25KT 10SM CLR 30/12 A2999 RMK AO2 SLP146 T03000117
KDFW 072053Z 16016G26KT 10SM SCT300 30/11 A3002 RMK AO2 PK WND 16028/2016 SLP158 T03000111 58037
KDFW 071953Z 17015G20KT 10SM SCT300 30/14 A3006 RMK AO2 SLP172 T03000144
KDFW 071853Z 17014G20KT 10SM SCT300 29/13 A3009 RMK AO2 SLP182 T02890133
KDFW 071753Z 17013KT 10SM FEW300 28/12 A3013 RMK AO2 SLP195 T02780117 10283 20150 58018
KDFW 071653Z 16012G19KT 10SM FEW300 26/13 A3016 RMK AO2 SLP206 T02560128
KDFW 071553Z 12012KT 10SM FEW300 24/11 A3018 RMK AO2 SLP212 T02440106
KDFW 071453Z 10010KT 10SM FEW300 24/09 A3018 RMK AO2 SLP214 T02390094 50005
KDFW 071353Z 10010KT 10SM SCT300 22/12 A3019 RMK AO2 SLP215 T02170117
KDFW 071253Z 08003KT 10SM SCT300 19/14 A3018 RMK AO2 SLP215 T01890139
KDFW 071153Z 09003KT 10SM FEW300 15/13 A3017 RMK AO2 SLP209 T01500128 10206 20150 53011